Glouster, Ohio
Current Conditions -  °F | °C
As of 5:35 PM on Tuesday 21 Oct 2014 (Local Time) from KUNI Reporting Station
Light Rain Light Rain  
Wind Chill: 45°   Ceiling: 2700
Heat Index: 49°   Visibility: 7mi
Dew Point: 45°   Wind: 9mph
Humidity: 85%   Direction: 320°NW
Pressure: 30.03"   Gusts: 13mph
Location:  39.5°N, 82.08°W
Report Text: KUNI 212135Z AUTO 32008G11KT 7SM -RA SCT017 BKN027 OVC043 10/07 A3003 RMK AO2 T00950071
Loading
Personal Weather Stations






























Interactive Weather Map
Tropical Storm Tracking
New forecast layout! Learn more

10-Day Weather Forecast

Advertisements
Track Severe Weather on mobile